Flight Track Log - Related Links

Times and Time Zones

All times are in EDT time to prevent confusion due to time zone crossing. See the N700QA flight status page for this flight to view local times or setup timezone preferences in your user account.

Time Position Orientation Groundspeed Altitude Reporting Facility
EDT Latitude Longitude Course Direction KTS MPH feet Rate Location/Type
Sun 01:55:31 AM 35.0386 -106.5753 270° West 193 222 5,900  Level Albuquerque Center
Sun 01:55:37 AM 35.0347 -106.5661 117° Southeast 200 230 6,200 857 Climbing Albuquerque Center
Sun 01:55:52 AM 35.0228 -106.5583 152° Southeast 229 264 6,200 1,920 Level Albuquerque Center
Sun 01:56:52 AM 34.9731 -106.5958 212° Southwest 223 257 8,600 2,293 Climbing Albuquerque Center
Sun 01:57:55 AM 34.9417 -106.6583 239° Southwest 223 257 10,900 2,323 Climbing Albuquerque Center
Sun 01:58:56 AM 34.9333 -106.7364 263° West 231 266 13,400 2,132 Climbing Albuquerque Center
Sun 01:59:56 AM 34.9306 -106.8175 268° West 237 273 15,200 1,846 Climbing Albuquerque Center
Sun 02:00:53 AM 34.9294 -106.9058 269° West 254 292 17,000 1,949 Climbing Albuquerque Center
Sun 02:01:00 AM 35.0059 -107.3410 270° West  Level Estimated
Sun 02:01:53 AM 34.9061 -106.9789 249° West 225 259 19,000  Level Albuquerque Center
Sun 02:02:54 AM 34.8775 -107.0572 246° West 254 292 19,300 446 Climbing Albuquerque Center
Sun 02:03:54 AM 34.8436 -107.1550 247° West 309 356 19,900 1,131 Climbing Albuquerque Center
Sun 02:04:56 AM 34.8111 -107.2539 248° West 315 362 21,600 1,500 Climbing Albuquerque Center
Sun 02:05:54 AM 34.7789 -107.3547 249° West 320 368 22,900 1,300 Climbing Albuquerque Center
Sun 02:06:56 AM 34.7494 -107.4586 251° West 323 372 24,200 1,122 Climbing Albuquerque Center
Sun 02:07:57 AM 34.7233 -107.5669 254° West 329 379 25,200 992 Climbing Albuquerque Center
Sun 02:08:57 AM 34.6936 -107.6722 251° West 331 381 26,200 893 Climbing Albuquerque Center
Sun 02:09:58 AM 34.6769 -107.7819 260° West 333 383 27,000 787 Climbing Albuquerque Center
Sun 02:10:59 AM 34.6858 -107.8981 275° West 343 395 27,800 893 Climbing Albuquerque Center
Sun 02:11:59 AM 34.7253 -108.0072 294° West 353 406 28,800 814 Climbing Albuquerque Center
Sun 02:12:57 AM 34.7664 -108.1158 295° West 351 404 29,400 610 Climbing Albuquerque Center
Sun 02:13:57 AM 34.8056 -108.2294 293° West 358 412 30,000 298 Climbing Albuquerque Center
Sun 02:14:58 AM 34.8453 -108.3378 294° West 363 418 30,000 148 Level Albuquerque Center
Sun 02:15:59 AM 34.8803 -108.4528 290° West 372 428 30,300 492 Climbing Albuquerque Center
Sun 02:17:00 AM 34.9050 -108.5867 283° West 364 419 31,000 595 Climbing Albuquerque Center
Sun 02:18:00 AM 34.9100 -108.7019 273° West 357 411 31,500 712 Climbing Albuquerque Center
Sun 02:18:58 AM 34.8950 -108.8178 261° West 359 413 32,400 661 Climbing Albuquerque Center
Sun 02:19:58 AM 34.8842 -108.9289 263° West 351 404 32,800 650 Climbing Albuquerque Center
Sun 02:20:58 AM 34.8756 -109.0578 265° West 345 397 33,700 585 Climbing Albuquerque Center
Sun 02:22:01 AM 34.8656 -109.1667 264° West 340 391 34,000 148 Climbing Albuquerque Center
Sun 02:23:00 AM 34.8550 -109.2786 263° West 344 396 34,000 50 Level Albuquerque Center
Sun 02:24:01 AM 34.8436 -109.4156 264° West 355 409 34,100 50 Climbing Albuquerque Center
Sun 02:25:01 AM 34.8319 -109.5364 263° West 364 419 34,100  Level Albuquerque Center
Sun 02:26:00 AM 34.8211 -109.6578 264° West 373 429 34,100  Level Albuquerque Center
Sun 02:27:02 AM 34.8106 -109.7825 264° West 380 437 34,100  Level Albuquerque Center
Sun 02:28:01 AM 34.7972 -109.9267 264° West 385 443 34,100  Level Albuquerque Center
Sun 02:29:03 AM 34.7861 -110.0519 264° West 387 445 34,100 -49 Level Albuquerque Center
Sun 02:30:03 AM 34.7764 -110.1811 265° West 394 453 34,000 -50 Descending Albuquerque Center
Sun 02:31:03 AM 34.7658 -110.3106 264° West 400 460 34,000  Level Albuquerque Center
Sun 02:32:04 AM 34.7528 -110.4528 264° West 386 444 34,000  Level Albuquerque Center
Sun 02:33:03 AM 34.7392 -110.5753 262° West 382 440 34,000  Level Albuquerque Center
Sun 02:34:03 AM 34.7256 -110.6967 262° West 380 437 34,000  Level Albuquerque Center
Sun 02:35:05 AM 34.7081 -110.8375 261° West 389 448 34,000  Level Albuquerque Center
Sun 02:36:05 AM 34.6939 -110.9639 262° West 382 440 34,000  Level Albuquerque Center
Sun 02:37:04 AM 34.6819 -111.0908 264° West 380 437 34,000  Level Albuquerque Center
Sun 02:38:03 AM 34.6683 -111.2178 263° West 380 437 34,000  Level Albuquerque Center
Sun 02:39:03 AM 34.6553 -111.3450 263° West 381 438 34,000  Level Albuquerque Center
Sun 02:40:04 AM 34.6428 -111.4717 263° West 381 438 34,000  Level Albuquerque Center
Sun 02:41:05 AM 34.6286 -111.5983 262° West 381 438 34,000  Level Albuquerque Center
Sun 02:42:04 AM 34.6144 -111.7250 262° West 381 438 34,000  Level Albuquerque Center
Sun 02:43:04 AM 34.6006 -111.8519 262° West 382 440 34,000  Level Albuquerque Center
Sun 02:44:04 AM 34.5861 -111.9808 262° West 385 443 34,000  Level Albuquerque Center
Sun 02:45:07 AM 34.5728 -112.1078 263° West 384 442 34,000  Level Albuquerque Center
Sun 02:46:07 AM 34.5594 -112.2342 263° West 382 440 34,000  Level Albuquerque Center
Sun 02:47:05 AM 34.5453 -112.3633 262° West 378 435 34,000  Level Albuquerque Center
Sun 02:48:08 AM 34.5314 -112.4897 262° West 379 436 34,000  Level Albuquerque Center
Sun 02:49:08 AM 34.5172 -112.6158 262° West 379 436 34,000  Level Albuquerque Center
Sun 02:50:08 AM 34.5028 -112.7419 262° West 379 436 34,000  Level Albuquerque Center
Sun 02:51:08 AM 34.4869 -112.8675 261° West 378 435 34,000  Level Albuquerque Center
Sun 02:52:08 AM 34.4722 -112.9931 262° West 379 436 34,000  Level Albuquerque Center
Sun 02:53:08 AM 34.4575 -113.1197 262° West 380 437 34,000  Level Albuquerque Center
Sun 02:54:09 AM 34.4431 -113.2450 262° West 378 435 34,000  Level Albuquerque Center
Sun 02:55:09 AM 34.4250 -113.3858 261° West 378 435 34,000  Level Albuquerque Center
Sun 02:56:08 AM 34.4125 -113.4900 262° West 378 435 34,000  Level Albuquerque Center
Sun 02:57:09 AM 34.3942 -113.6369 261° West 377 434 34,000  Level Albuquerque Center
Sun 02:58:10 AM 34.3789 -113.7608 262° West 375 432 34,000  Level Albuquerque Center
Sun 02:59:10 AM 34.3642 -113.8850 262° West 374 430 34,000  Level Albuquerque Center
Sun 03:00:07 AM 34.3494 -114.0092 262° West 373 429 34,000  Level Albuquerque Center
Sun 03:01:07 AM 34.3344 -114.1331 262° West 372 428 34,000  Level Albuquerque Center
Sun 03:02:08 AM 34.3211 -114.2561 263° West 371 427 34,000  Level Albuquerque Center
Sun 03:03:11 AM 34.3058 -114.3814 262° West 374 430 34,000  Level Albuquerque Center
Sun 03:04:11 AM 34.2911 -114.5053 262° West 373 429 34,000  Level Albuquerque Center
Sun 03:05:27 AM 34.2742 -114.6506 262° West 370 426 34,000  Level Los Angeles Center
Sun 03:06:27 AM 34.2600 -114.7733 262° West 369 425 34,000  Level Los Angeles Center
Sun 03:07:28 AM 34.2447 -114.8964 261° West 372 428 34,000  Level Los Angeles Center
Sun 03:08:28 AM 34.2297 -115.0175 262° West 368 423 34,000  Level Los Angeles Center
Sun 03:09:28 AM 34.2144 -115.1389 261° West 366 421 34,000  Level Los Angeles Center
Sun 03:10:29 AM 34.2000 -115.2603 262° West 366 421 34,000  Level Los Angeles Center
Sun 03:11:29 AM 34.1839 -115.3806 261° West 365 420 34,000 -361 Level Los Angeles Center
Sun 03:12:42 AM 34.1653 -115.5278 261° West 369 425 33,200 -902 Descending Los Angeles Center
Sun 03:13:42 AM 34.1486 -115.6558 261° West 385 443 32,000 -1,450 Descending Los Angeles Center
Sun 03:14:42 AM 34.1292 -115.8119 261° West 393 452 30,300 -1,537 Descending Los Angeles Center
Sun 03:15:43 AM 34.1111 -115.9389 260° West 388 447 28,900 -1,388 Descending Los Angeles Center
Sun 03:16:43 AM 34.0939 -116.0675 261° West 389 448 27,500 -1,450 Descending Los Angeles Center
Sun 03:17:43 AM 34.0775 -116.1972 261° West 392 451 26,000 -1,438 Descending Los Angeles Center
Sun 03:18:44 AM 34.0600 -116.3269 261° West 394 453 24,600 -1,388 Descending Los Angeles Center
Sun 03:19:44 AM 34.0425 -116.4575 261° West 396 456 23,200 -1,450 Descending Los Angeles Center
Sun 03:20:44 AM 34.0242 -116.5861 260° West 392 451 21,700 -1,438 Descending Los Angeles Center
Sun 03:21:45 AM 34.0067 -116.7106 260° West 383 441 20,300 -1,388 Descending Los Angeles Center
Sun 03:22:45 AM 33.9900 -116.8342 261° West 378 435 18,900 -1,608 Descending Los Angeles Center
Sun 03:23:22 AM 33.9833 -116.9167 264° West 369 425 17,700 -1,113 Descending Southern California TRACON
Sun 03:24:22 AM 33.9667 -117.0333 260° West 370 426 17,100 -619 Descending Southern California TRACON
Sun 03:25:28 AM 33.9500 -117.1833 262° West 377 434 16,400 -600 Descending Southern California TRACON
Sun 03:26:22 AM 33.9333 -117.2833 259° West 380 437 15,900 -800 Descending Southern California TRACON
Sun 03:27:28 AM 33.9167 -117.4333 262° West 366 421 14,800 -900 Descending Southern California TRACON
Sun 03:28:22 AM 33.9167 -117.5333 270° West 370 426 14,100 -778 Descending Southern California TRACON
Sun 03:29:16 AM 33.9333 -117.6333 281° West 374 430 13,400 -789 Descending Southern California TRACON
Sun 03:30:16 AM 33.9500 -117.7667 279° West 373 429 12,600 -800 Descending Southern California TRACON
Sun 03:31:16 AM 33.9667 -117.8833 280° West 370 426 11,800 -850 Descending Southern California TRACON
Sun 03:32:16 AM 33.9667 -118.0000 270° West 358 412 10,900 -842 Descending Southern California TRACON
Sun 03:33:10 AM 33.9667 -118.1000 270° West 353 406 10,200 -581 Descending Southern California TRACON
Sun 03:33:49 AM 33.9650 -118.1569 268° West 348 400 10,000 -848 Descending Los Angeles Center
Sun 03:34:49 AM 33.9831 -118.2753 280° West 304 350 8,800 -950 Descending Los Angeles Center
Sun 03:35:49 AM 33.9956 -118.3739 279° West 302 348 8,100 -645 Descending Los Angeles Center
Sun 03:36:50 AM 34.0092 -118.4694 280° West 301 346 7,500 -1,190 Descending Los Angeles Center
Sun 03:37:50 AM 34.0172 -118.5603 276° West 279 321 5,700 -1,450 Descending Los Angeles Center
Sun 03:38:50 AM 33.9928 -118.6283 247° West 240 276 4,600 -1,100 Descending Los Angeles Center
Sun 03:39:50 AM 33.9478 -118.5964 150° Southeast 192 221 3,500 -1,339 Descending Los Angeles Center
Sun 03:40:51 AM 33.9406 -118.5361 98° East 181 208 1,900 -1,240 Descending Los Angeles Center
Sun 03:41:51 AM 33.9419 -118.4822 88° East 160 184 1,000 -800 Descending Los Angeles Center
Sun 03:42:51 AM 33.9458 -118.4431 83° East 129 148 300 -700 Descending Los Angeles Center
Sun 03:44:00 AM 33.9425 -118.4081 104° East  Level Estimated
Sun 03:51:00 AM 33.9425 -118.4081 104° East  Level Estimated

Login

Don't have an account? Register now (free) for customized features, flight alerts, and more!